Time;durP1;ratioP1;P1;durP2;ratioP2;P2;SDS_P1;SDS_P2;PMS_P1;PMS_P2;Temp;Humidity;BMP_temperature;BMP_pressure;BME280_temperature;BME280_humidity;BME280_pressure;Samples;Min_cycle;Max_cycle;Signal;HPM_P1;HPM_P2
2021/10/10 00:01:48;;;;;;;;;;;;;;;8.97;59.66;97601.16;4976201;28;19926;-79
2021/10/10 00:04:17;;;;;;;;;;;;;;;8.94;60.23;97604.03;4976439;28;19989;-79
2021/10/10 00:06:44;;;;;;;;;;;;;;;8.93;60.04;97605.00;4974026;28;19926;-80
2021/10/10 00:09:12;;;;;;;;;;;;;;;8.95;60.12;97607.47;4975614;28;19926;-79
2021/10/10 00:11:39;;;;;;;;;;;;;;;8.97;60.14;97605.53;4975170;28;19977;-79
2021/10/10 00:14:06;;;;;;;;;;;;;;;8.94;60.33;97606.63;4974871;28;20378;-79
2021/10/10 00:16:34;;;;;;;;;;;;;;;8.92;60.33;97600.78;4974252;28;20309;-79
2021/10/10 00:19:01;;;;;;;;;;;;;;;8.91;60.54;97598.31;4974497;28;19969;-79
2021/10/10 00:21:30;;;;;;;;;;;;;;;8.87;60.49;97595.19;4974324;28;19949;-79
2021/10/10 00:23:57;;;;;;;;;;;;;;;8.83;60.89;97601.63;4974789;28;19926;-80
2021/10/10 00:26:24;;;;;;;;;;;;;;;8.81;60.36;97601.81;4974235;28;19926;-80
2021/10/10 00:28:52;;;;;;;;;;;;;;;8.82;60.84;97597.41;4974016;28;19926;-80
2021/10/10 00:31:19;;;;;;;;;;;;;;;8.80;60.57;97594.94;4973988;28;19933;-80
2021/10/10 00:33:47;;;;;;;;;;;;;;;8.79;60.74;97595.94;4974159;28;20013;-80
2021/10/10 00:36:14;;;;;;;;;;;;;;;8.79;60.62;97590.72;4973991;28;19953;-80
2021/10/10 00:38:43;;;;;;;;;;;;;;;8.79;61.03;97589.88;4973611;28;19934;-79
2021/10/10 00:41:10;;;;;;;;;;;;;;;8.83;60.83;97583.44;4974718;28;19926;-80
2021/10/10 00:43:38;;;;;;;;;;;;;;;8.88;60.64;97586.44;4975222;28;19933;-80
2021/10/10 00:46:05;;;;;;;;;;;;;;;8.92;60.61;97581.72;4974109;28;19926;-79
2021/10/10 00:48:32;;;;;;;;;;;;;;;8.93;60.52;97568.59;5001033;23;19936;-78
2021/10/10 00:51:00;;;;;;;;;;;;;;;8.91;60.33;97578.31;4993714;28;20436;-78
2021/10/10 00:53:27;;;;;;;;;;;;;;;8.85;60.43;97574.53;4993689;28;19929;-78
2021/10/10 00:55:56;;;;;;;;;;;;;;;8.80;60.51;97573.31;4993654;28;20393;-78
2021/10/10 00:58:24;;;;;;;;;;;;;;;8.77;60.66;97574.44;4993623;28;19926;-78
2021/10/10 01:00:53;;;;;;;;;;;;;;;8.78;60.81;97572.66;4993895;28;19937;-78
2021/10/10 01:03:20;;;;;;;;;;;;;;;8.77;60.70;97573.63;4993883;28;19969;-78
2021/10/10 01:05:48;;;;;;;;;;;;;;;8.74;61.35;97576.50;4993828;28;19926;-78
2021/10/10 01:08:16;;;;;;;;;;;;;;;8.68;60.89;97574.47;5003920;28;19920;-76
2021/10/10 01:10:45;;;;;;;;;;;;;;;8.65;60.80;97579.00;5016967;28;19926;-76
2021/10/10 01:13:14;;;;;;;;;;;;;;;8.69;60.93;97576.13;5016059;28;19936;-78
2021/10/10 01:15:42;;;;;;;;;;;;;;;8.71;61.01;97574.22;5017195;28;19918;-77
2021/10/10 01:18:09;;;;;;;;;;;;;;;8.74;62.06;97568.69;5019442;28;19920;-78
2021/10/10 01:20:43;;;;;;;;;;;;;;;8.83;62.47;97573.03;5020729;28;19918;-79
2021/10/10 01:23:10;;;;;;;;;;;;;;;8.94;62.26;97566.78;5020902;28;19932;-77
2021/10/10 01:25:37;;;;;;;;;;;;;;;9.02;61.75;97575.50;5021116;28;19925;-76
2021/10/10 01:28:05;;;;;;;;;;;;;;;9.06;61.79;97569.03;5020130;28;19925;-78
2021/10/10 01:30:32;;;;;;;;;;;;;;;9.08;62.10;97564.50;5000878;28;19933;-78
2021/10/10 01:33:00;;;;;;;;;;;;;;;9.10;60.13;97558.34;4997108;28;19930;-78
2021/10/10 01:35:28;;;;;;;;;;;;;;;9.06;60.55;97561.22;4997229;28;20348;-78
2021/10/10 01:37:57;;;;;;;;;;;;;;;9.05;60.49;97558.75;4997191;28;19926;-78
2021/10/10 01:40:24;;;;;;;;;;;;;;;9.04;60.59;97564.94;4996917;28;19997;-79
2021/10/10 01:42:52;;;;;;;;;;;;;;;9.03;61.14;97556.34;4997421;28;20305;-78
2021/10/10 01:45:20;;;;;;;;;;;;;;;9.00;61.16;97554.00;4997633;28;19932;-77
2021/10/10 01:47:48;;;;;;;;;;;;;;;8.95;60.60;97556.25;5014856;28;19916;-77
2021/10/10 01:50:15;;;;;;;;;;;;;;;8.88;60.05;97557.81;5017455;28;19921;-77
2021/10/10 01:52:44;;;;;;;;;;;;;;;8.80;60.08;97552.50;5020152;28;19936;-77
2021/10/10 01:55:13;;;;;;;;;;;;;;;8.72;59.04;97547.22;5020306;28;19914;-77
2021/10/10 01:57:41;;;;;;;;;;;;;;;8.63;59.57;97549.72;5020179;28;19926;-77
2021/10/10 02:00:09;;;;;;;;;;;;;;;8.56;59.70;97550.47;5019917;28;19938;-77
2021/10/10 02:02:36;;;;;;;;;;;;;;;8.50;59.65;97546.66;5019259;28;19925;-78
2021/10/10 02:05:04;;;;;;;;;;;;;;;8.46;60.32;97545.31;5002311;28;19961;-78
2021/10/10 02:07:31;;;;;;;;;;;;;;;8.38;60.53;97548.59;4997450;28;19926;-77
2021/10/10 02:09:59;;;;;;;;;;;;;;;8.34;60.99;97549.84;4996867;28;20385;-78
2021/10/10 02:12:28;;;;;;;;;;;;;;;8.32;61.18;97546.59;4996850;28;19973;-78
2021/10/10 02:14:55;;;;;;;;;;;;;;;8.30;61.51;97547.69;4996567;28;19937;-78
2021/10/10 02:17:22;;;;;;;;;;;;;;;8.24;61.80;97536.06;5003368;28;19933;-78
2021/10/10 02:19:50;;;;;;;;;;;;;;;8.22;61.95;97544.03;5007329;28;19936;-78
2021/10/10 02:22:17;;;;;;;;;;;;;;;8.18;61.84;97537.50;5003121;28;19926;-78
2021/10/10 02:24:44;;;;;;;;;;;;;;;8.19;62.08;97533.09;4996787;28;19926;-78
2021/10/10 02:27:11;;;;;;;;;;;;;;;8.18;61.96;97532.28;5019210;28;19933;-77
2021/10/10 02:29:40;;;;;;;;;;;;;;;8.16;62.18;97533.41;5018809;28;19926;-76
2021/10/10 02:32:07;;;;;;;;;;;;;;;8.14;62.32;97535.31;5019456;28;20023;-76
2021/10/10 02:34:35;;;;;;;;;;;;;;;8.13;62.03;97538.88;5018971;28;19926;-77
2021/10/10 02:37:02;;;;;;;;;;;;;;;8.12;62.37;97535.47;5018710;28;19914;-77
2021/10/10 02:39:30;;;;;;;;;;;;;;;8.15;62.13;97542.16;5002867;28;19925;-78
2021/10/10 02:41:57;;;;;;;;;;;;;;;8.17;62.32;97535.84;4995924;28;19925;-78
2021/10/10 02:44:25;;;;;;;;;;;;;;;8.21;62.14;97541.56;4996264;28;19933;-77
2021/10/10 02:46:54;;;;;;;;;;;;;;;8.24;62.10;97536.91;4995832;28;19925;-77
2021/10/10 02:49:21;;;;;;;;;;;;;;;8.27;62.48;97543.59;4995366;28;19926;-78
2021/10/10 02:51:48;;;;;;;;;;;;;;;8.30;62.12;97545.91;4995539;28;19926;-78
2021/10/10 02:54:16;;;;;;;;;;;;;;;8.32;62.00;97543.16;4995749;28;20286;-78
2021/10/10 02:56:43;;;;;;;;;;;;;;;8.32;62.12;97537.97;4995923;28;19926;-78
2021/10/10 02:59:11;;;;;;;;;;;;;;;8.34;61.98;97536.88;4995367;28;19930;-78
2021/10/10 03:01:38;;;;;;;;;;;;;;;8.37;61.59;97536.56;4995661;28;20400;-78
2021/10/10 03:04:11;;;;;;;;;;;;;;;8.37;61.46;97531.34;4995483;28;19925;-78
2021/10/10 03:06:39;;;;;;;;;;;;;;;8.39;61.57;97526.84;4995298;28;20416;-78
2021/10/10 03:09:06;;;;;;;;;;;;;;;8.41;61.65;97527.53;4995643;28;19925;-79
2021/10/10 03:11:33;;;;;;;;;;;;;;;8.41;61.12;97534.53;4995813;28;19938;-78
2021/10/10 03:14:01;;;;;;;;;;;;;;;8.41;61.72;97527.53;4995436;28;19933;-78
2021/10/10 03:16:30;;;;;;;;;;;;;;;8.47;61.78;97522.75;4995263;28;19926;-78
2021/10/10 03:18:57;;;;;;;;;;;;;;;8.50;62.49;97522.44;4995034;28;19932;-78
2021/10/10 03:21:26;;;;;;;;;;;;;;;8.54;62.41;97532.41;4995067;28;20432;-78
2021/10/10 03:23:53;;;;;;;;;;;;;;;8.56;62.77;97527.88;4994998;28;19930;-78
2021/10/10 03:26:21;;;;;;;;;;;;;;;8.59;61.11;97525.00;4995436;28;19926;-78
2021/10/10 03:28:48;;;;;;;;;;;;;;;8.58;62.26;97528.53;4994952;28;19933;-78
2021/10/10 03:31:15;;;;;;;;;;;;;;;8.59;62.10;97527.59;4994980;28;19926;-78
2021/10/10 03:33:43;;;;;;;;;;;;;;;8.61;61.26;97525.63;4994698;28;19926;-78
2021/10/10 03:36:10;;;;;;;;;;;;;;;8.59;61.28;97530.19;4994643;28;19925;-78
2021/10/10 03:38:39;;;;;;;;;;;;;;;8.59;61.07;97530.19;4994648;28;20294;-78
2021/10/10 03:41:06;;;;;;;;;;;;;;;8.55;60.54;97526.25;4993851;28;19925;-78
2021/10/10 03:43:34;;;;;;;;;;;;;;;8.50;59.33;97532.84;4994933;28;19926;-77
2021/10/10 03:46:01;;;;;;;;;;;;;;;8.41;59.36;97526.72;4994637;28;19929;-78
2021/10/10 03:48:29;;;;;;;;;;;;;;;8.28;59.20;97529.63;4994384;28;19940;-78
2021/10/10 03:50:56;;;;;;;;;;;;;;;8.15;59.53;97532.56;4994673;28;20412;-78
2021/10/10 03:53:32;;;;;;;;;;;;;;;8.05;59.96;97531.81;4994512;28;19925;-78
2021/10/10 03:56:00;;;;;;;;;;;;;;;7.97;60.21;97529.09;4994425;28;19925;-78
2021/10/10 03:58:28;;;;;;;;;;;;;;;7.92;60.20;97528.72;4993931;28;19941;-78
2021/10/10 04:00:55;;;;;;;;;;;;;;;7.85;60.36;97525.84;4994450;28;19930;-78
2021/10/10 04:03:24;;;;;;;;;;;;;;;7.84;61.09;97525.00;4994421;28;20395;-78
2021/10/10 04:05:51;;;;;;;;;;;;;;;7.85;60.68;97525.84;4994273;28;19926;-78
2021/10/10 04:08:18;;;;;;;;;;;;;;;7.83;60.54;97533.78;4994195;28;19933;-77
2021/10/10 04:10:46;;;;;;;;;;;;;;;7.81;60.66;97525.31;4994010;28;19937;-78
2021/10/10 04:13:14;;;;;;;;;;;;;;;7.78;60.27;97530.81;4993939;28;19930;-78
2021/10/10 04:15:42;;;;;;;;;;;;;;;7.73;59.90;97532.16;4994204;28;19930;-78
2021/10/10 04:18:09;;;;;;;;;;;;;;;7.65;60.35;97530.25;4994283;28;19926;-78
2021/10/10 04:20:37;;;;;;;;;;;;;;;7.64;61.92;97528.63;4993739;28;19930;-78
2021/10/10 04:23:04;;;;;;;;;;;;;;;7.70;62.99;97530.69;4994094;28;19926;-78
2021/10/10 04:25:32;;;;;;;;;;;;;;;7.78;63.03;97536.00;4994232;28;20362;-78
2021/10/10 04:28:00;;;;;;;;;;;;;;;7.77;61.77;97534.34;4994114;28;19933;-78
2021/10/10 04:30:28;;;;;;;;;;;;;;;7.78;62.44;97532.56;4994102;28;19929;-78
2021/10/10 04:32:56;;;;;;;;;;;;;;;7.76;61.29;97532.72;4993849;28;19937;-78
2021/10/10 04:35:23;;;;;;;;;;;;;;;7.70;61.63;97533.28;4993718;28;19925;-78
2021/10/10 04:37:50;;;;;;;;;;;;;;;7.69;61.23;97533.41;4993757;28;20124;-78
2021/10/10 04:40:18;;;;;;;;;;;;;;;7.66;60.51;97529.31;4993192;28;19926;-78
2021/10/10 04:42:45;;;;;;;;;;;;;;;7.64;61.28;97528.63;4994014;28;20348;-78
2021/10/10 04:45:13;;;;;;;;;;;;;;;7.62;61.12;97533.97;4993582;28;19947;-78
2021/10/10 04:47:41;;;;;;;;;;;;;;;7.56;60.36;97533.69;4993233;28;20386;-78
2021/10/10 04:50:09;;;;;;;;;;;;;;;7.53;60.74;97541.78;4993368;28;19925;-78
2021/10/10 04:52:36;;;;;;;;;;;;;;;7.47;61.44;97534.53;4993379;28;19925;-78
2021/10/10 04:55:04;;;;;;;;;;;;;;;7.44;60.60;97527.84;4993416;28;20332;-78
2021/10/10 04:57:32;;;;;;;;;;;;;;;7.42;61.50;97534.97;4993520;28;19933;-78
2021/10/10 04:59:59;;;;;;;;;;;;;;;7.39;61.67;97536.06;4993199;28;20386;-77
2021/10/10 05:02:26;;;;;;;;;;;;;;;7.40;62.39;97537.69;5002942;28;19930;-78
2021/10/10 05:04:55;;;;;;;;;;;;;;;7.41;63.24;97528.97;5007228;28;19926;-78
2021/10/10 05:07:23;;;;;;;;;;;;;;;7.39;62.62;97536.06;5006941;28;19926;-78
2021/10/10 05:09:50;;;;;;;;;;;;;;;7.37;61.86;97532.78;4997355;28;19937;-78
2021/10/10 05:12:17;;;;;;;;;;;;;;;7.36;64.08;97536.31;4993544;28;20017;-76
2021/10/10 05:14:45;;;;;;;;;;;;;;;7.42;63.82;97540.16;4993484;28;19926;-78
2021/10/10 05:17:12;;;;;;;;;;;;;;;7.46;63.65;97540.72;4993286;28;19926;-78
2021/10/10 05:19:40;;;;;;;;;;;;;;;7.49;63.03;97540.41;4993068;28;19926;-78
2021/10/10 05:22:08;;;;;;;;;;;;;;;7.46;61.79;97543.31;4993340;28;19929;-78
2021/10/10 05:24:36;;;;;;;;;;;;;;;7.40;61.27;97542.88;4993414;28;19926;-78
2021/10/10 05:27:03;;;;;;;;;;;;;;;7.33;61.04;97543.59;4993293;28;19926;-78
2021/10/10 05:29:31;;;;;;;;;;;;;;;7.25;61.12;97546.84;4993130;28;20452;-78
2021/10/10 05:31:58;;;;;;;;;;;;;;;7.17;61.42;97538.94;4993241;28;19933;-78
2021/10/10 05:34:26;;;;;;;;;;;;;;;7.08;61.50;97547.53;4993098;28;20324;-78
2021/10/10 05:36:54;;;;;;;;;;;;;;;7.05;61.61;97540.03;4993133;28;20330;-78
2021/10/10 05:39:23;;;;;;;;;;;;;;;7.04;62.53;97540.97;4992736;28;19933;-78
2021/10/10 05:41:50;;;;;;;;;;;;;;;7.03;62.23;97539.34;4993246;28;19937;-77
2021/10/10 05:44:18;;;;;;;;;;;;;;;7.02;62.07;97546.31;4993368;28;19930;-78
2021/10/10 05:46:45;;;;;;;;;;;;;;;6.98;61.40;97544.97;4993333;28;19926;-78
2021/10/10 05:49:12;;;;;;;;;;;;;;;6.92;60.89;97540.31;4992737;28;19926;-78
2021/10/10 05:51:44;;;;;;;;;;;;;;;6.84;61.49;97546.16;4993367;28;19929;-78
2021/10/10 05:54:12;;;;;;;;;;;;;;;6.76;61.22;97538.25;4992978;28;19926;-77
2021/10/10 05:56:41;;;;;;;;;;;;;;;6.71;61.34;97545.59;4993169;28;19926;-78
2021/10/10 05:59:10;;;;;;;;;;;;;;;6.66;61.28;97547.78;4992625;28;20467;-78
2021/10/10 06:01:39;;;;;;;;;;;;;;;6.59;61.99;97550.09;4992912;28;20011;-78
2021/10/10 06:04:07;;;;;;;;;;;;;;;6.57;61.96;97557.16;4994490;28;19926;-78
2021/10/10 06:06:35;;;;;;;;;;;;;;;6.64;64.33;97547.09;5004965;28;19926;-78
2021/10/10 06:09:04;;;;;;;;;;;;;;;6.77;64.77;97555.44;5007509;28;19997;-78
2021/10/10 06:11:31;;;;;;;;;;;;;;;6.91;64.81;97560.25;5006046;28;19980;-78
2021/10/10 06:14:00;;;;;;;;;;;;;;;7.07;64.26;97561.47;4997022;28;19926;-78
2021/10/10 06:16:27;;;;;;;;;;;;;;;7.20;64.02;97557.66;4996875;28;19937;-78
2021/10/10 06:18:55;;;;;;;;;;;;;;;7.33;64.09;97557.38;4988306;28;19926;-78
2021/10/10 06:21:22;;;;;;;;;;;;;;;7.40;62.11;97552.44;4996750;28;19926;-78
2021/10/10 06:23:50;;;;;;;;;;;;;;;7.47;62.66;97556.13;4996500;28;19930;-77
2021/10/10 06:26:17;;;;;;;;;;;;;;;7.55;62.87;97564.03;4996306;28;19930;-78
2021/10/10 06:28:44;;;;;;;;;;;;;;;7.64;62.86;97559.78;4995776;28;19926;-78
2021/10/10 06:31:13;;;;;;;;;;;;;;;7.74;62.62;97562.38;4996310;28;19937;-78
2021/10/10 06:33:40;;;;;;;;;;;;;;;7.84;62.20;97566.56;4996123;28;19933;-78
2021/10/10 06:36:08;;;;;;;;;;;;;;;7.89;60.64;97560.97;4996232;28;19930;-78
2021/10/10 06:38:35;;;;;;;;;;;;;;;7.96;61.98;97564.66;4995869;28;20150;-78
2021/10/10 06:41:03;;;;;;;;;;;;;;;8.09;61.75;97568.69;4995824;28;20413;-78
2021/10/10 06:43:31;;;;;;;;;;;;;;;8.21;61.41;97573.56;4996347;28;19925;-78
2021/10/10 06:45:58;;;;;;;;;;;;;;;8.36;61.05;97565.31;4995850;28;19929;-78
2021/10/10 06:48:27;;;;;;;;;;;;;;;8.48;60.60;97563.38;5012156;23;19957;-81
2021/10/10 06:50:54;;;;;;;;;;;;;;;8.54;58.85;97568.81;4979160;28;19934;-81
2021/10/10 06:53:21;;;;;;;;;;;;;;;8.58;59.14;97564.97;4979576;28;20191;-81
2021/10/10 06:55:49;;;;;;;;;;;;;;;8.70;59.34;97573.38;4978978;28;19926;-82
2021/10/10 06:58:17;;;;;;;;;;;;;;;8.80;59.01;97570.72;4980301;28;20310;-83
2021/10/10 07:00:44;;;;;;;;;;;;;;;8.94;60.06;97569.41;4979749;28;20378;-80
2021/10/10 07:03:12;;;;;;;;;;;;;;;9.08;59.09;97567.09;4980331;28;19926;-78
2021/10/10 07:05:41;;;;;;;;;;;;;;;9.22;58.77;97570.16;4980640;28;19926;-80
2021/10/10 07:08:08;;;;;;;;;;;;;;;9.35;57.64;97577.59;4980443;28;19926;-79
2021/10/10 07:10:36;;;;;;;;;;;;;;;9.45;57.43;97568.72;4981220;28;20044;-80
2021/10/10 07:13:03;;;;;;;;;;;;;;;9.56;57.37;97567.69;4981943;28;19949;-82
2021/10/10 07:15:30;;;;;;;;;;;;;;;9.69;57.17;97573.31;4981636;28;19937;-77
2021/10/10 07:18:00;;;;;;;;;;;;;;;9.85;56.77;97574.38;4981661;28;19926;-80
2021/10/10 07:20:40;;;;;;;;;;;;;;;10.00;56.72;97577.25;4981488;28;19949;-81
2021/10/10 07:23:13;;;;;;;;;;;;;;;10.16;56.38;97576.53;4982161;28;19930;-80
2021/10/10 07:25:41;;;;;;;;;;;;;;;10.30;56.13;97581.19;4982443;28;19953;-81
2021/10/10 07:28:08;;;;;;;;;;;;;;;10.43;55.76;97572.91;4981081;28;20414;-79
2021/10/10 07:30:35;;;;;;;;;;;;;;;10.59;55.83;97577.41;4980113;28;19949;-78
2021/10/10 07:33:03;;;;;;;;;;;;;;;10.74;55.95;97577.63;4982300;28;19933;-81
2021/10/10 07:35:31;;;;;;;;;;;;;;;10.91;55.67;97567.06;4982144;28;19962;-79
2021/10/10 07:37:59;;;;;;;;;;;;;;;11.12;55.65;97571.81;4980282;28;19933;-79
2021/10/10 07:40:27;;;;;;;;;;;;;;;11.35;55.71;97573.81;4981200;28;19933;-79
2021/10/10 07:42:55;;;;;;;;;;;;;;;11.59;55.50;97577.38;4972708;28;19926;-78
2021/10/10 07:45:24;;;;;;;;;;;;;;;11.78;54.46;97569.22;4980061;28;19926;-79
2021/10/10 07:47:51;;;;;;;;;;;;;;;11.98;54.04;97571.50;4979131;28;19926;-82
2021/10/10 07:50:20;;;;;;;;;;;;;;;12.18;54.84;97579.78;4979795;28;19926;-78
2021/10/10 07:52:48;;;;;;;;;;;;;;;12.40;53.72;97580.84;4979131;28;19930;-77
2021/10/10 07:55:16;;;;;;;;;;;;;;;12.58;53.40;97582.28;4978050;28;20290;-78
2021/10/10 07:57:45;;;;;;;;;;;;;;;12.73;52.99;97574.53;4979745;28;19926;-75
2021/10/10 08:00:12;;;;;;;;;;;;;;;12.91;52.67;97576.88;4980341;28;19934;-76
2021/10/10 08:02:53;;;;;;;;;;;;;;;13.09;52.25;97583.66;4980205;28;19926;-79
2021/10/10 08:05:22;;;;;;;;;;;;;;;13.29;52.69;97584.03;4981555;28;19926;-77
2021/10/10 08:07:50;;;;;;;;;;;;;;;13.51;52.36;97583.22;4980959;28;19948;-77
2021/10/10 08:10:18;;;;;;;;;;;;;;;13.75;52.42;97576.97;4981431;28;19941;-77
2021/10/10 08:12:46;;;;;;;;;;;;;;;14.01;51.92;97586.22;4980845;28;20412;-77
2021/10/10 08:15:14;;;;;;;;;;;;;;;14.26;51.06;97580.75;4982730;28;19949;-79
2021/10/10 08:17:41;;;;;;;;;;;;;;;14.48;50.87;97584.25;4981918;28;19926;-79
2021/10/10 08:20:09;;;;;;;;;;;;;;;14.71;50.32;97584.97;4981291;28;19926;-78
2021/10/10 08:22:38;;;;;;;;;;;;;;;14.93;50.37;97587.66;4983878;28;20436;-83
2021/10/10 08:25:07;;;;;;;;;;;;;;;15.15;50.12;97585.84;4983991;28;19926;-84
2021/10/10 08:27:35;;;;;;;;;;;;;;;15.41;49.28;97586.16;4982192;28;19926;-82
2021/10/10 08:30:05;;;;;;;;;;;;;;;15.66;48.61;97585.75;4981567;28;19926;-81
2021/10/10 08:32:33;;;;;;;;;;;;;;;15.92;48.55;97582.53;4986714;28;19921;-80
2021/10/10 08:35:00;;;;;;;;;;;;;;;16.17;48.25;97582.09;4990121;28;19926;-80
2021/10/10 08:37:27;;;;;;;;;;;;;;;16.38;46.81;97584.66;4983410;28;19942;-82
2021/10/10 08:39:55;;;;;;;;;;;;;;;16.57;44.54;97582.31;4982753;28;19933;-81
2021/10/10 08:42:27;;;;;;;;;;;;;;;16.74;45.61;97578.31;4983134;28;19926;-80
2021/10/10 08:45:01;;;;;;;;;;;;;;;17.03;42.28;97584.31;4985561;28;19935;-79
2021/10/10 08:47:31;;;;;;;;;;;;;;;17.12;42.07;97582.31;4986465;28;19926;-79
2021/10/10 08:49:59;;;;;;;;;;;;;;;17.24;42.27;97589.44;4986523;28;19933;-80
2021/10/10 08:52:28;;;;;;;;;;;;;;;17.34;40.37;97594.34;4986459;28;19926;-81
2021/10/10 08:54:55;;;;;;;;;;;;;;;17.42;40.67;97593.34;4987316;28;19965;-81
2021/10/10 08:57:23;;;;;;;;;;;;;;;17.49;41.13;97587.06;4987228;28;19926;-79
2021/10/10 08:59:55;;;;;;;;;;;;;;;17.70;42.06;97579.97;4986939;28;19990;-79
2021/10/10 09:02:26;;;;;;;;;;;;;;;17.99;40.30;97583.22;4987726;28;19933;-80
2021/10/10 09:04:54;;;;;;;;;;;;;;;18.11;40.73;97579.78;4986789;28;19933;-81
2021/10/10 09:07:22;;;;;;;;;;;;;;;18.31;40.09;97584.22;4986248;28;19934;-80
2021/10/10 09:09:49;;;;;;;;;;;;;;;18.46;42.26;97586.63;4985461;28;19927;-82
2021/10/10 09:12:17;;;;;;;;;;;;;;;18.73;41.01;97582.03;4986178;28;20007;-77
2021/10/10 09:14:45;;;;;;;;;;;;;;;19.00;38.34;97579.28;4986633;28;20286;-80
2021/10/10 09:17:14;;;;;;;;;;;;;;;19.20;39.35;97574.72;4984563;28;20397;-81
2021/10/10 09:19:47;;;;;;;;;;;;;;;19.41;38.79;97583.34;4984294;28;19926;-80
2021/10/10 09:22:16;;;;;;;;;;;;;;;19.48;37.75;97576.16;4983780;28;19991;-80
2021/10/10 09:24:44;;;;;;;;;;;;;;;19.33;39.43;97582.56;4983638;28;19933;-80
2021/10/10 09:27:13;;;;;;;;;;;;;;;19.25;37.95;97579.38;4983965;28;20454;-80
2021/10/10 09:29:41;;;;;;;;;;;;;;;19.18;39.31;97578.63;4982300;28;19926;-80
2021/10/10 09:32:10;;;;;;;;;;;;;;;19.27;38.53;97575.50;4983489;28;19926;-81
2021/10/10 09:34:38;;;;;;;;;;;;;;;19.40;39.29;97573.78;4983798;28;19933;-81
2021/10/10 09:37:07;;;;;;;;;;;;;;;19.47;38.37;97571.91;4983359;28;19933;-82
2021/10/10 09:39:38;;;;;;;;;;;;;;;19.64;40.07;97575.63;4987821;28;19926;-82
2021/10/10 09:42:05;;;;;;;;;;;;;;;20.04;38.77;97582.47;4991289;28;19926;-80
2021/10/10 09:44:44;;;;;;;;;;;;;;;20.62;38.37;97581.28;4990183;28;19933;-81
2021/10/10 09:47:13;;;;;;;;;;;;;;;21.53;37.22;97572.31;4989505;28;19981;-81
2021/10/10 09:49:40;;;;;;;;;;;;;;;22.08;36.22;97567.75;4988492;28;19926;-80
2021/10/10 09:52:12;;;;;;;;;;;;;;;22.35;35.74;97568.13;4988872;28;20370;-80
2021/10/10 09:54:51;;;;;;;;;;;;;;;22.54;36.37;97571.41;4988392;28;19926;-79
2021/10/10 09:57:19;;;;;;;;;;;;;;;22.81;35.55;97572.50;4987176;28;20306;-82
2021/10/10 09:59:47;;;;;;;;;;;;;;;23.25;35.40;97566.69;4988023;28;19933;-80
2021/10/10 10:02:15;;;;;;;;;;;;;;;23.92;32.87;97568.63;4987926;28;19933;-80
2021/10/10 10:04:44;;;;;;;;;;;;;;;24.51;33.09;97570.78;4986837;28;20429;-79
2021/10/10 10:07:12;;;;;;;;;;;;;;;24.74;31.53;97560.91;4986443;28;20404;-81
2021/10/10 10:09:39;;;;;;;;;;;;;;;24.49;31.83;97561.41;4985566;28;19926;-82
2021/10/10 10:12:09;;;;;;;;;;;;;;;24.31;33.43;97568.59;4985739;28;19927;-79
2021/10/10 10:14:36;;;;;;;;;;;;;;;24.23;31.43;97561.84;4984486;28;19926;-80
2021/10/10 10:17:04;;;;;;;;;;;;;;;24.29;33.07;97567.25;4983440;28;19926;-78
2021/10/10 10:19:34;;;;;;;;;;;;;;;24.65;29.20;97566.69;4982409;28;19930;-80
2021/10/10 10:22:02;;;;;;;;;;;;;;;24.90;30.98;97567.22;4983550;28;19926;-79
2021/10/10 10:24:31;;;;;;;;;;;;;;;25.10;31.02;97570.09;4983198;28;19933;-82
2021/10/10 10:26:59;;;;;;;;;;;;;;;25.16;30.70;97576.31;4982189;28;19926;-82
2021/10/10 10:29:29;;;;;;;;;;;;;;;24.96;29.23;97575.03;4981511;28;19926;-80
2021/10/10 10:31:57;;;;;;;;;;;;;;;24.66;29.65;97564.81;4982051;28;19926;-81
2021/10/10 10:34:28;;;;;;;;;;;;;;;24.49;31.52;97567.56;4982734;28;19926;-80
2021/10/10 10:36:56;;;;;;;;;;;;;;;24.76;30.85;97570.28;4982318;28;19934;-79
2021/10/10 10:39:34;;;;;;;;;;;;;;;25.26;31.30;97565.75;4982646;28;19926;-81
2021/10/10 10:42:35;;;;;;;;;;;;;;;25.94;28.03;97562.59;4986566;28;19973;-81
2021/10/10 10:45:18;;;;;;;;;;;;;;;26.05;29.20;97566.94;4986916;28;19936;-82
2021/10/10 10:47:46;;;;;;;;;;;;;;;25.77;26.71;97568.06;4985390;28;19930;-81
2021/10/10 10:50:13;;;;;;;;;;;;;;;25.27;30.01;97559.34;4983877;28;20408;-80
2021/10/10 10:52:42;;;;;;;;;;;;;;;25.06;28.37;97569.81;4985562;28;19926;-82
2021/10/10 10:55:17;;;;;;;;;;;;;;;24.93;30.96;97553.41;4985943;28;19926;-83
2021/10/10 10:57:50;;;;;;;;;;;;;;;24.94;28.78;97549.66;4982176;28;19962;-83
2021/10/10 11:00:26;;;;;;;;;;;;;;;24.93;30.50;97554.19;4985492;28;19932;-83
2021/10/10 11:02:55;;;;;;;;;;;;;;;25.12;28.36;97548.50;4983945;28;19926;-80
2021/10/10 11:05:32;;;;;;;;;;;;;;;25.13;30.44;97547.44;4983468;28;20021;-85
2021/10/10 11:08:00;;;;;;;;;;;;;;;25.21;29.61;97544.34;4982201;28;19930;-83
2021/10/10 11:10:28;;;;;;;;;;;;;;;25.09;27.58;97544.47;4982536;28;19933;-81
2021/10/10 11:12:56;;;;;;;;;;;;;;;25.06;29.04;97537.78;4983515;28;19933;-81
2021/10/10 11:15:24;;;;;;;;;;;;;;;25.26;30.18;97536.38;4983919;28;19933;-79
2021/10/10 11:17:56;;;;;;;;;;;;;;;25.54;28.63;97539.81;4982906;28;19926;-83
2021/10/10 11:20:24;;;;;;;;;;;;;;;25.70;28.38;97538.88;4981719;28;19933;-79
2021/10/10 11:22:51;;;;;;;;;;;;;;;25.70;29.16;97530.88;4989297;28;20207;-83
2021/10/10 11:25:19;;;;;;;;;;;;;;;25.72;28.06;97533.28;4993761;28;19926;-84
2021/10/10 11:27:49;;;;;;;;;;;;;;;25.71;28.14;97529.78;4991494;28;19932;-83
2021/10/10 11:30:17;;;;;;;;;;;;;;;25.48;27.08;97533.63;4989944;28;19925;-84
2021/10/10 11:32:50;;;;;;;;;;;;;;;25.11;25.96;97529.00;4990450;28;19926;-84
2021/10/10 11:35:26;;;;;;;;;;;;;;;24.94;30.52;97521.09;4991846;28;19926;-84
2021/10/10 11:38:02;;;;;;;;;;;;;;;25.28;30.28;97523.59;4991294;28;19927;-81
2021/10/10 11:40:30;;;;;;;;;;;;;;;25.58;28.93;97527.56;4990693;28;19972;-82
2021/10/10 11:42:58;;;;;;;;;;;;;;;25.69;27.35;97529.25;4990471;28;19936;-83
2021/10/10 11:45:26;;;;;;;;;;;;;;;25.59;28.58;97535.31;4989310;28;19926;-84
2021/10/10 11:47:55;;;;;;;;;;;;;;;25.47;29.92;97532.00;4989658;28;19926;-83
2021/10/10 11:50:23;;;;;;;;;;;;;;;25.52;29.40;97533.91;4988575;28;19926;-81
2021/10/10 11:52:58;;;;;;;;;;;;;;;25.60;29.85;97520.91;4987391;28;20295;-82
2021/10/10 11:55:32;;;;;;;;;;;;;;;25.75;28.41;97517.53;4986480;28;19926;-83
2021/10/10 11:58:01;;;;;;;;;;;;;;;25.70;29.22;97514.84;4984609;28;19926;-81
2021/10/10 12:00:30;;;;;;;;;;;;;;;25.55;27.03;97520.88;4984582;28;19926;-84
2021/10/10 12:03:04;;;;;;;;;;;;;;;25.22;28.10;97519.25;4985484;28;19926;-81
2021/10/10 12:05:38;;;;;;;;;;;;;;;24.84;28.51;97518.34;4985512;28;19933;-84
2021/10/10 12:08:17;;;;;;;;;;;;;;;24.50;29.90;97523.03;4984762;28;19931;-80
2021/10/10 12:10:48;;;;;;;;;;;;;;;24.24;31.00;97504.81;4983729;28;21233;-83
2021/10/10 12:13:15;;;;;;;;;;;;;;;24.04;29.70;97509.88;4984430;28;19933;-80
2021/10/10 12:15:43;;;;;;;;;;;;;;;23.68;29.32;97511.19;4985374;28;19926;-83
2021/10/10 12:18:11;;;;;;;;;;;;;;;23.21;30.20;97507.00;4984902;28;19926;-80
2021/10/10 12:20:38;;;;;;;;;;;;;;;22.81;31.43;97506.00;4984147;28;19926;-81
2021/10/10 12:23:07;;;;;;;;;;;;;;;22.61;31.45;97498.44;4984365;28;20398;-80
2021/10/10 12:25:38;;;;;;;;;;;;;;;22.55;32.28;97502.06;4987674;28;19926;-80
2021/10/10 12:28:07;;;;;;;;;;;;;;;22.45;30.66;97493.88;4988790;28;19965;-82
2021/10/10 12:30:37;;;;;;;;;;;;;;;22.23;31.52;97495.56;4988193;28;20013;-82
2021/10/10 12:33:21;;;;;;;;;;;;;;;21.96;31.71;97494.19;4985038;28;19977;-80
2021/10/10 12:35:52;;;;;;;;;;;;;;;21.72;32.66;97492.56;4982347;28;19926;-84
2021/10/10 12:38:27;;;;;;;;;;;;;;;21.51;33.10;97494.75;4982365;28;20394;-80
2021/10/10 12:40:56;;;;;;;;;;;;;;;21.40;32.35;97493.66;4982252;28;19930;-80
2021/10/10 12:43:33;;;;;;;;;;;;;;;21.22;33.60;97480.50;4982311;28;19926;-79
2021/10/10 12:46:02;;;;;;;;;;;;;;;21.10;33.67;97483.13;4982206;28;19926;-79
2021/10/10 12:59:21;;;;;;;;;;;;;;;20.48;34.43;97480.69;5543772;23;19920;-79
2021/10/10 13:01:48;;;;;;;;;;;;;;;20.38;34.77;97475.13;5013258;28;19932;-80
2021/10/10 13:04:16;;;;;;;;;;;;;;;20.27;34.75;97474.03;5005996;28;19930;-80
2021/10/10 13:06:44;;;;;;;;;;;;;;;20.22;34.78;97471.22;4995672;28;19933;-79
2021/10/10 13:09:12;;;;;;;;;;;;;;;20.20;34.41;97472.47;4994851;28;20017;-80
2021/10/10 13:11:39;;;;;;;;;;;;;;;20.12;35.11;97469.09;4995237;28;19933;-80